Time;durP1;ratioP1;P1;durP2;ratioP2;P2;SDS_P1;SDS_P2;PMS_P1;PMS_P2;Temp;Humidity;BMP_temperature;BMP_pressure;BME280_temperature;BME280_humidity;BME280_pressure;Samples;Min_cycle;Max_cycle;Signal;HPM_P1;HPM_P2
2022/12/06 00:02:03;;;;;;;5.23;3.90;;;;;;;1.65;100.00;95977.44;5068535;28;24538;-72
2022/12/06 00:04:30;;;;;;;8.43;3.85;;;;;;;1.63;100.00;95986.00;5068305;28;24526;-72
2022/12/06 00:06:57;;;;;;;6.75;4.05;;;;;;;1.56;100.00;95984.47;5068952;28;24919;-71
2022/12/06 00:09:26;;;;;;;5.40;3.97;;;;;;;1.62;100.00;95974.09;5067700;28;24793;-73
2022/12/06 00:11:53;;;;;;;6.00;3.80;;;;;;;1.58;100.00;95975.06;5061477;28;24865;-72
2022/12/06 00:14:21;;;;;;;4.25;3.80;;;;;;;1.63;100.00;95976.66;5056442;28;24530;-71
2022/12/06 00:16:48;;;;;;;4.05;3.65;;;;;;;1.60;100.00;95976.72;5065951;28;24526;-72
2022/12/06 00:19:17;;;;;;;4.28;3.67;;;;;;;1.55;100.00;95978.53;5068077;28;24530;-71
2022/12/06 00:21:44;;;;;;;4.10;3.70;;;;;;;1.59;100.00;95972.47;5062995;28;24542;-72
2022/12/06 00:24:13;;;;;;;3.33;3.03;;;;;;;1.58;100.00;95980.16;5066235;28;24541;-71
2022/12/06 00:26:42;;;;;;;4.63;3.50;;;;;;;1.60;100.00;95978.44;5060996;28;24539;-72
2022/12/06 00:29:12;;;;;;;4.72;3.65;;;;;;;1.60;100.00;95974.16;5066259;28;24458;-72
2022/12/06 00:31:40;;;;;;;3.92;3.35;;;;;;;1.67;100.00;95969.75;5062843;28;24562;-71
2022/12/06 00:34:07;;;;;;;4.10;3.70;;;;;;;1.55;100.00;95968.31;5068735;28;24534;-72
2022/12/06 00:36:36;;;;;;;9.38;3.53;;;;;;;1.59;100.00;95967.34;5066632;28;24529;-72
2022/12/06 00:39:06;;;;;;;3.90;3.00;;;;;;;1.62;100.00;95951.97;5057120;28;25056;-72
2022/12/06 00:41:33;;;;;;;3.95;3.40;;;;;;;1.64;100.00;95951.94;5064608;28;24525;-72
2022/12/06 00:43:59;;;;;;;3.65;3.30;;;;;;;1.63;100.00;95955.34;5065902;28;24541;-71
2022/12/06 00:46:28;;;;;;;4.75;3.65;;;;;;;1.66;100.00;95948.47;5067896;28;24534;-72
2022/12/06 00:48:58;;;;;;;6.10;3.58;;;;;;;1.66;100.00;95953.56;5065694;28;25009;-72
2022/12/06 00:51:26;;;;;;;4.07;3.58;;;;;;;1.64;100.00;95957.06;5059310;28;24534;-72
2022/12/06 00:53:53;;;;;;;4.55;3.63;;;;;;;1.65;100.00;95957.00;5067013;28;24534;-72
2022/12/06 00:56:19;;;;;;;4.30;3.72;;;;;;;1.62;100.00;95962.19;5064166;28;25193;-72
2022/12/06 00:58:47;;;;;;;4.18;3.60;;;;;;;1.59;100.00;95964.81;5065759;28;24533;-73
2022/12/06 01:01:15;;;;;;;5.65;3.53;;;;;;;1.60;100.00;95956.28;5061321;28;24534;-72
2022/12/06 01:03:43;;;;;;;4.15;3.40;;;;;;;1.64;100.00;95949.41;5059668;28;24458;-72
2022/12/06 01:06:15;;;;;;;4.20;3.63;;;;;;;1.61;100.00;95949.47;5066827;28;24537;-72
2022/12/06 01:08:42;;;;;;;3.90;3.50;;;;;;;1.46;100.00;95950.69;5058626;28;24434;-71
2022/12/06 01:11:10;;;;;;;4.45;3.75;;;;;;;1.42;100.00;95959.28;5060809;28;24546;-70
2022/12/06 01:13:36;;;;;;;5.45;3.90;;;;;;;1.38;100.00;95950.03;5060417;28;24427;-70
2022/12/06 01:16:07;;;;;;;6.88;3.65;;;;;;;1.41;100.00;95948.25;5067484;28;24435;-71
2022/12/06 01:18:34;;;;;;;4.47;3.65;;;;;;;1.37;100.00;95951.75;5068119;28;24481;-70
2022/12/06 01:21:03;;;;;;;4.82;4.13;;;;;;;1.28;100.00;95948.56;5061570;28;24450;-70
2022/12/06 01:23:31;;;;;;;5.97;4.20;;;;;;;1.19;100.00;95949.63;5056607;28;25007;-70
2022/12/06 01:25:58;;;;;;;7.00;3.97;;;;;;;1.19;100.00;95958.13;5064816;28;25011;-70
2022/12/06 01:28:24;;;;;;;5.38;4.10;;;;;;;1.20;100.00;95954.69;5066092;28;24879;-71
2022/12/06 01:30:51;;;;;;;5.10;4.22;;;;;;;1.16;100.00;95955.63;5061213;28;24435;-70
2022/12/06 01:33:17;;;;;;;4.15;3.70;;;;;;;1.17;100.00;95954.75;5056588;28;24435;-71
2022/12/06 01:35:44;;;;;;;4.05;3.67;;;;;;;1.19;100.00;95949.63;5064452;28;24442;-70
2022/12/06 01:38:11;;;;;;;4.53;3.90;;;;;;;1.21;100.00;95958.06;5068166;28;24431;-70
2022/12/06 01:40:40;;;;;;;6.55;4.30;;;;;;;1.21;100.00;95951.25;5059629;28;25010;-71
2022/12/06 01:43:25;;;;;;;4.80;4.03;;;;;;;1.29;100.00;95951.06;5056485;28;24459;-71
2022/12/06 01:45:51;;;;;;;4.75;3.70;;;;;;;1.38;100.00;95952.59;5064086;28;24457;-71
2022/12/06 01:48:18;;;;;;;4.90;4.13;;;;;;;1.41;100.00;95949.97;5062522;28;24879;-73
2022/12/06 01:50:45;;;;;;;4.57;3.75;;;;;;;1.44;100.00;95945.59;5061646;28;24441;-72
2022/12/06 01:53:12;;;;;;;4.05;3.63;;;;;;;1.45;100.00;95949.84;5056761;28;24446;-70
2022/12/06 01:55:40;;;;;;;4.07;3.60;;;;;;;1.53;100.00;95947.09;5064929;28;24527;-71
2022/12/06 01:58:11;;;;;;;4.13;3.65;;;;;;;1.61;100.00;95950.31;5064450;28;24427;-71
2022/12/06 02:00:38;;;;;;;4.93;3.67;;;;;;;1.67;100.00;95942.50;5057544;28;24801;-70
2022/12/06 02:03:11;;;;;;;6.15;4.00;;;;;;;1.70;100.00;95939.84;5056492;28;24459;-70
2022/12/06 02:05:38;;;;;;;5.13;4.28;;;;;;;1.72;100.00;95936.44;5065156;28;24423;-71
2022/12/06 02:08:05;;;;;;;5.78;3.83;;;;;;;1.78;100.00;95939.69;5064320;28;25007;-72
2022/12/06 02:10:31;;;;;;;4.65;3.63;;;;;;;1.78;100.00;95932.00;5057945;28;24430;-71
2022/12/06 02:12:59;;;;;;;6.03;3.60;;;;;;;1.81;100.00;95928.53;5057304;28;24439;-71
2022/12/06 02:15:34;;;;;;;4.38;3.72;;;;;;;1.82;100.00;95936.16;5064890;28;24450;-71
2022/12/06 02:18:10;;;;;;;4.00;3.57;;;;;;;1.79;100.00;95931.13;5059819;28;24453;-72
2022/12/06 02:20:44;;;;;;;4.57;3.95;;;;;;;1.71;100.00;95927.94;5065407;28;24443;-72
2022/12/06 02:23:26;;;;;;;6.47;4.57;;;;;;;1.70;100.00;95927.06;5067105;28;24495;-71
2022/12/06 02:26:17;;;;;;;5.65;4.50;;;;;;;1.72;100.00;95923.66;5066335;28;24435;-71
2022/12/06 02:29:25;;;;;;;5.65;4.00;;;;;;;1.76;100.00;95921.00;5059525;28;24446;-72
2022/12/06 02:31:58;;;;;;;5.68;4.10;;;;;;;1.74;100.00;95924.44;5065965;28;24439;-71
2022/12/06 02:34:31;;;;;;;7.30;6.05;;;;;;;1.73;100.00;95920.22;5070260;28;24431;-71
2022/12/06 02:37:03;;;;;;;6.13;5.50;;;;;;;1.69;100.00;95922.03;5065728;28;24435;-71
2022/12/06 02:39:35;;;;;;;7.75;6.28;;;;;;;1.69;100.00;95920.31;5065999;28;24441;-71
2022/12/06 02:42:06;;;;;;;5.45;4.68;;;;;;;1.64;100.00;95923.88;5065715;28;24434;-71
2022/12/06 02:44:37;;;;;;;4.78;4.30;;;;;;;1.67;100.00;95919.53;5070109;28;24796;-71
2022/12/06 02:47:08;;;;;;;4.30;3.90;;;;;;;1.74;100.00;95914.25;5064252;28;25077;-73
2022/12/06 02:49:43;;;;;;;5.75;3.72;;;;;;;1.79;100.00;95909.88;5061975;28;24442;-72
2022/12/06 02:52:10;;;;;;;4.43;3.60;;;;;;;1.78;100.00;95913.28;5063952;28;24500;-72
2022/12/06 02:54:38;;;;;;;4.38;3.88;;;;;;;1.73;100.00;95917.69;5060953;28;24546;-72
2022/12/06 02:57:05;;;;;;;4.78;3.70;;;;;;;1.73;100.00;95917.69;5064773;28;24434;-71
2022/12/06 02:59:31;;;;;;;4.25;3.47;;;;;;;1.70;100.00;95913.47;5066766;28;24427;-72
2022/12/06 03:02:01;;;;;;;4.45;3.65;;;;;;;1.70;100.00;95911.75;5070274;28;25046;-71
2022/12/06 03:04:49;;;;;;;4.40;3.80;;;;;;;1.69;100.00;95907.53;5061697;28;25000;-72
2022/12/06 03:07:35;;;;;;;3.97;3.50;;;;;;;1.59;100.00;95905.25;5061454;28;24450;-72
2022/12/06 03:10:32;;;;;;;4.43;3.65;;;;;;;1.63;100.00;95905.16;5061494;28;24484;-71
2022/12/06 03:13:10;;;;;;;4.45;3.50;;;;;;;1.64;100.00;95909.38;5067990;28;24443;-72
2022/12/06 03:15:49;;;;;;;4.63;3.50;;;;;;;1.55;100.00;95913.88;5066945;28;24521;-72
2022/12/06 03:18:19;;;;;;;4.30;3.57;;;;;;;1.52;100.00;95914.81;5063695;28;24439;-72
2022/12/06 03:20:54;;;;;;;3.88;2.80;;;;;;;1.57;100.00;95904.47;5069806;28;24496;-71
2022/12/06 03:23:26;;;;;;;3.28;2.97;;;;;;;1.48;100.00;95904.69;5060189;28;24455;-71
2022/12/06 03:25:55;;;;;;;4.18;3.40;;;;;;;1.59;100.00;95900.97;5058995;28;24428;-70
2022/12/06 03:28:21;;;;;;;5.43;3.42;;;;;;;1.70;100.00;95906.66;5067313;28;24435;-71
2022/12/06 03:30:51;;;;;;;3.90;3.22;;;;;;;1.63;100.00;95900.06;5058629;28;24442;-71
2022/12/06 03:33:22;;;;;;;3.60;3.07;;;;;;;1.56;100.00;95900.22;5067669;28;24490;-71
2022/12/06 03:35:52;;;;;;;3.90;3.30;;;;;;;1.57;100.00;95894.25;5061390;28;24446;-71
2022/12/06 03:38:25;;;;;;;3.20;2.80;;;;;;;1.57;100.00;95892.53;5064402;28;25002;-71
2022/12/06 03:40:54;;;;;;;3.55;3.25;;;;;;;1.61;100.00;95889.03;5068761;28;24438;-72
2022/12/06 03:43:21;;;;;;;3.30;3.00;;;;;;;1.62;100.00;95893.25;5058725;28;24449;-71
2022/12/06 03:45:55;;;;;;;3.60;3.05;;;;;;;1.66;100.00;95887.19;5059318;28;24444;-72
2022/12/06 03:48:29;;;;;;;2.42;2.22;;;;;;;1.62;100.00;95887.31;5067319;28;24505;-72
2022/12/06 03:51:02;;;;;;;3.67;2.33;;;;;;;1.62;100.00;95889.88;5065242;28;24441;-72
2022/12/06 03:53:29;;;;;;;3.10;2.80;;;;;;;1.63;100.00;95897.50;5060587;28;24435;-72
2022/12/06 03:55:55;;;;;;;2.95;2.65;;;;;;;1.66;100.00;95889.75;5067294;28;24442;-71
2022/12/06 03:58:22;;;;;;;3.50;2.83;;;;;;;1.63;100.00;95892.41;5066526;28;24506;-72
2022/12/06 04:00:48;;;;;;;3.00;2.70;;;;;;;1.65;100.00;95887.25;5068675;28;25027;-72
2022/12/06 04:03:15;;;;;;;3.17;2.97;;;;;;;1.61;100.00;95893.31;5058661;28;24441;-72
2022/12/06 04:05:41;;;;;;;6.68;3.97;;;;;;;1.55;100.00;95893.44;5069454;28;24458;-71
2022/12/06 04:08:09;;;;;;;4.22;3.58;;;;;;;1.53;100.00;95887.56;5062610;28;24439;-72
2022/12/06 04:10:36;;;;;;;4.00;3.60;;;;;;;1.52;100.00;95886.72;5069307;28;24439;-71
2022/12/06 04:13:04;;;;;;;4.10;3.70;;;;;;;1.48;100.00;95884.28;5057829;28;24434;-72
2022/12/06 04:15:34;;;;;;;3.97;3.50;;;;;;;1.53;100.00;95877.34;5063037;28;24430;-72
2022/12/06 04:18:15;;;;;;;3.83;3.45;;;;;;;1.58;100.00;95876.34;5064195;28;24844;-71
2022/12/06 04:23:35;;;;;;;3.65;3.35;;;;;;;1.50;100.00;95867.22;5060533;28;24460;-72
2022/12/06 04:26:02;;;;;;;3.85;3.47;;;;;;;1.49;100.00;95866.38;5060147;28;24505;-72
2022/12/06 04:39:26;;;;;;;4.50;3.45;;;;;;;1.61;100.00;95866.06;5067870;28;24516;-71
2022/12/06 04:44:37;;;;;;;3.72;3.28;;;;;;;1.68;100.00;95861.63;5062858;28;24469;-70
2022/12/06 04:47:04;;;;;;;4.63;3.28;;;;;;;1.73;100.00;95861.50;5066935;28;24434;-70
2022/12/06 04:49:31;;;;;;;5.45;3.70;;;;;;;1.70;100.00;95853.03;5062059;28;25035;-71
2022/12/06 04:51:57;;;;;;;3.70;3.40;;;;;;;1.70;100.00;95854.75;5058465;28;24434;-72
2022/12/06 04:54:25;;;;;;;4.03;3.70;;;;;;;1.60;100.00;95854.19;5059649;28;24438;-72
2022/12/06 04:56:52;;;;;;;4.40;3.78;;;;;;;1.48;100.00;95849.38;5066200;28;24437;-71
2022/12/06 04:59:19;;;;;;;5.67;4.20;;;;;;;1.38;100.00;95853.91;5059082;28;24512;-71
2022/12/06 05:01:45;;;;;;;4.20;3.75;;;;;;;1.29;100.00;95854.13;5067737;28;24465;-72
2022/12/06 05:04:12;;;;;;;6.60;3.58;;;;;;;1.23;100.00;95845.78;5064799;28;25159;-72
2022/12/06 05:06:38;;;;;;;3.75;3.45;;;;;;;1.31;100.00;95852.38;5067371;28;24437;-72
2022/12/06 05:09:05;;;;;;;5.60;3.97;;;;;;;1.38;100.00;95846.25;5058077;28;24447;-71
2022/12/06 05:11:33;;;;;;;7.82;3.90;;;;;;;1.37;100.00;95857.34;5066449;28;24450;-71
2022/12/06 05:14:00;;;;;;;4.35;3.67;;;;;;;1.35;100.00;95853.13;5065818;28;25011;-71
2022/12/06 05:16:27;;;;;;;7.13;3.40;;;;;;;1.25;100.00;95854.22;5067267;28;24476;-72
2022/12/06 05:18:53;;;;;;;4.13;3.72;;;;;;;1.20;100.00;95855.19;5054418;28;24439;-70
2022/12/06 05:21:22;;;;;;;5.03;4.00;;;;;;;1.24;100.00;95850.84;5065726;28;24430;-71
2022/12/06 05:23:49;;;;;;;4.45;3.50;;;;;;;1.22;100.00;95847.47;5066127;28;24462;-70
2022/12/06 05:26:17;;;;;;;4.03;3.47;;;;;;;1.22;100.00;95855.13;5067114;28;24442;-72
2022/12/06 05:28:46;;;;;;;3.77;3.47;;;;;;;1.22;100.00;95855.13;5066793;28;24514;-72
2022/12/06 05:31:13;;;;;;;4.15;3.53;;;;;;;1.27;100.00;95849.94;5063430;28;24438;-71
2022/12/06 05:33:40;;;;;;;3.92;3.58;;;;;;;1.38;100.00;95851.34;5065846;28;24518;-71
2022/12/06 05:36:08;;;;;;;4.40;4.00;;;;;;;1.46;100.00;95846.03;5061100;28;24438;-71
2022/12/06 05:38:34;;;;;;;4.55;3.58;;;;;;;1.51;100.00;95841.63;5060472;28;24465;-72
2022/12/06 05:41:02;;;;;;;3.67;3.28;;;;;;;1.55;100.00;95838.13;5059165;28;24442;-71
2022/12/06 05:43:29;;;;;;;4.05;3.60;;;;;;;1.54;100.00;95835.63;5061123;28;24538;-72
2022/12/06 05:45:57;;;;;;;4.13;3.72;;;;;;;1.53;100.00;95837.34;5065368;28;24548;-70
2022/12/06 05:48:24;;;;;;;4.50;4.07;;;;;;;1.50;100.00;95849.34;5065731;28;24434;-71
2022/12/06 05:50:52;;;;;;;4.90;3.97;;;;;;;1.52;100.00;95838.22;5064541;28;25096;-71
2022/12/06 05:53:20;;;;;;;5.07;4.00;;;;;;;1.56;100.00;95839.81;5057476;28;24450;-71
2022/12/06 05:55:47;;;;;;;4.88;4.05;;;;;;;1.61;100.00;95840.53;5060266;28;24431;-71
2022/12/06 05:58:14;;;;;;;4.57;4.10;;;;;;;1.55;100.00;95842.41;5056794;28;24530;-71
2022/12/06 06:00:41;;;;;;;5.18;4.13;;;;;;;1.51;100.00;95851.84;5058041;28;24442;-71
2022/12/06 06:03:09;;;;;;;4.53;4.13;;;;;;;1.49;100.00;95847.69;5052943;28;25007;-70
2022/12/06 06:05:35;;;;;;;4.65;3.90;;;;;;;1.50;100.00;95839.97;5060321;28;24454;-71
2022/12/06 06:08:02;;;;;;;4.25;3.85;;;;;;;1.55;100.00;95838.13;5060160;28;24794;-70
2022/12/06 06:10:28;;;;;;;4.05;3.50;;;;;;;1.55;100.00;95853.44;5065404;28;24427;-71
2022/12/06 06:12:55;;;;;;;5.75;4.15;;;;;;;1.61;100.00;95847.34;5070228;28;24445;-71
2022/12/06 06:15:21;;;;;;;4.70;4.20;;;;;;;1.64;100.00;95835.34;5064265;28;24427;-71
2022/12/06 06:17:48;;;;;;;4.22;3.83;;;;;;;1.72;100.00;95841.97;5069204;28;24454;-70
2022/12/06 06:20:15;;;;;;;6.82;4.13;;;;;;;1.71;100.00;95841.13;5064507;28;24435;-71
2022/12/06 06:22:42;;;;;;;5.25;3.78;;;;;;;1.72;100.00;95827.47;5066157;28;24445;-70
2022/12/06 06:25:09;;;;;;;4.30;3.67;;;;;;;1.76;100.00;95830.78;5069516;28;24447;-71
2022/12/06 06:27:37;;;;;;;4.60;4.00;;;;;;;1.81;100.00;95832.31;5066884;28;24995;-71
2022/12/06 06:30:05;;;;;;;6.55;3.83;;;;;;;1.75;100.00;95829.94;5069915;28;24435;-71
2022/12/06 06:32:32;;;;;;;5.15;4.00;;;;;;;1.69;100.00;95836.03;5067132;28;24493;-71
2022/12/06 06:34:59;;;;;;;5.90;4.88;;;;;;;1.61;100.00;95839.69;5062288;28;24435;-71
2022/12/06 06:37:27;;;;;;;4.47;3.97;;;;;;;1.54;100.00;95833.06;5063616;28;24437;-71
2022/12/06 06:39:53;;;;;;;5.75;4.40;;;;;;;1.54;100.00;95836.47;5068545;28;24439;-71
2022/12/06 06:42:20;;;;;;;5.38;4.10;;;;;;;1.52;100.00;95830.56;5067357;28;24454;-71
2022/12/06 06:44:46;;;;;;;5.75;4.22;;;;;;;1.44;100.00;95827.38;5069583;28;24821;-71
2022/12/06 06:47:13;;;;;;;5.45;4.25;;;;;;;1.47;100.00;95827.28;5064634;28;24435;-71
2022/12/06 06:49:40;;;;;;;5.65;4.75;;;;;;;1.50;100.00;95837.41;5070146;28;24438;-73
2022/12/06 06:52:06;;;;;;;5.32;4.43;;;;;;;1.57;100.00;95838.09;5069490;28;24453;-70
2022/12/06 06:54:34;;;;;;;5.13;4.63;;;;;;;1.53;100.00;95836.50;5066075;28;24443;-71
2022/12/06 06:57:01;;;;;;;6.60;4.93;;;;;;;1.46;100.00;95830.72;5065714;28;24453;-68
2022/12/06 06:59:28;;;;;;;6.38;4.47;;;;;;;1.40;100.00;95829.16;5067565;28;24441;-71
2022/12/06 07:01:55;;;;;;;5.53;4.43;;;;;;;1.35;100.00;95837.81;5066242;28;24442;-71
2022/12/06 07:04:21;;;;;;;5.82;4.20;;;;;;;1.25;100.00;95828.72;5070630;28;24453;-73
2022/12/06 07:06:48;;;;;;;8.68;4.30;;;;;;;1.24;100.00;95834.72;5063092;28;24439;-75
2022/12/06 07:09:14;;;;;;;5.20;4.00;;;;;;;1.31;100.00;95836.22;5068514;28;24434;-72
2022/12/06 07:11:42;;;;;;;7.40;4.10;;;;;;;1.26;100.00;95844.00;5064245;28;24448;-72
2022/12/06 07:14:09;;;;;;;5.68;4.28;;;;;;;1.21;100.00;95848.38;5065091;28;24446;-72
2022/12/06 07:16:35;;;;;;;7.43;4.40;;;;;;;1.18;100.00;95848.44;5061382;28;24437;-73
2022/12/06 07:19:02;;;;;;;5.00;4.30;;;;;;;1.19;100.00;95848.41;5057820;28;24459;-73
2022/12/06 07:21:29;;;;;;;5.60;3.95;;;;;;;1.19;100.00;95848.41;5063712;28;24822;-71
2022/12/06 07:23:55;;;;;;;4.68;4.00;;;;;;;1.31;100.00;95844.72;5058183;28;24438;-69
2022/12/06 07:26:23;;;;;;;4.85;4.18;;;;;;;1.42;100.00;95847.84;5064922;28;24455;-69
2022/12/06 07:28:51;;;;;;;6.40;5.17;;;;;;;1.44;100.00;95847.78;5067400;28;24540;-69
2022/12/06 07:31:19;;;;;;;5.45;4.22;;;;;;;1.46;100.00;95846.03;5070081;28;24976;-70
2022/12/06 07:33:47;;;;;;;4.90;4.40;;;;;;;1.48;100.00;95846.81;5067131;28;24438;-70
2022/12/06 07:36:15;;;;;;;6.00;4.60;;;;;;;1.35;100.00;95853.97;5058846;28;24438;-69
2022/12/06 07:38:42;;;;;;;5.50;4.75;;;;;;;1.38;100.00;95859.00;5066132;28;24434;-69
2022/12/06 07:46:38;;;;;;;4.50;4.10;;;;;;;1.23;100.00;95856.84;5063007;28;24442;-69
2022/12/06 07:49:05;;;;;;;4.57;4.17;;;;;;;1.10;100.00;95858.84;5061310;28;24437;-69
2022/12/06 07:51:32;;;;;;;5.22;4.72;;;;;;;1.05;100.00;95855.56;5061673;28;24445;-69
2022/12/06 07:53:58;;;;;;;5.38;4.85;;;;;;;1.07;100.00;95853.81;5065055;28;24443;-69
2022/12/06 07:56:25;;;;;;;6.82;4.60;;;;;;;1.20;100.00;95852.63;5061788;28;24427;-69
2022/12/06 07:58:53;;;;;;;4.72;4.25;;;;;;;1.46;100.00;95856.25;5067811;28;24434;-69
2022/12/06 08:01:20;;;;;;;5.15;4.53;;;;;;;1.51;100.00;95858.69;5061445;28;24430;-69
2022/12/06 08:03:46;;;;;;;4.90;4.47;;;;;;;1.55;100.00;95850.06;5066385;28;25043;-70
2022/12/06 08:06:13;;;;;;;4.63;4.15;;;;;;;1.63;100.00;95859.22;5062077;28;24459;-69
2022/12/06 08:08:39;;;;;;;5.20;4.40;;;;;;;1.63;100.00;95854.09;5064521;28;24805;-70
2022/12/06 08:11:07;;;;;;;4.65;4.15;;;;;;;1.60;100.00;95853.34;5062743;28;24747;-69
2022/12/06 08:13:35;;;;;;;6.13;4.30;;;;;;;1.71;100.00;95856.44;5064152;28;24446;-71
2022/12/06 08:16:06;;;;;;;5.28;4.13;;;;;;;1.99;100.00;95853.13;5058779;28;24800;-71
2022/12/06 08:18:32;;;;;;;4.40;3.95;;;;;;;1.87;100.00;95851.75;5063834;28;24530;-71
2022/12/06 08:20:59;;;;;;;4.88;4.32;;;;;;;1.88;100.00;95851.69;5062756;28;25040;-72
2022/12/06 08:23:26;;;;;;;4.72;4.18;;;;;;;1.89;100.00;95848.28;5068598;28;24441;-72
2022/12/06 08:25:57;;;;;;;4.90;3.90;;;;;;;1.88;100.00;95846.59;5060485;28;24458;-70
2022/12/06 08:28:24;;;;;;;5.18;4.00;;;;;;;1.95;100.00;95849.81;5060024;28;24446;-70
2022/12/06 08:30:50;;;;;;;5.22;4.03;;;;;;;1.98;100.00;95851.47;5062464;28;25071;-69
2022/12/06 08:33:18;;;;;;;4.20;3.70;;;;;;;1.91;100.00;95853.34;5069027;28;24441;-69
2022/12/06 08:35:44;;;;;;;4.50;4.03;;;;;;;1.91;100.00;95843.97;5062388;28;24434;-69
2022/12/06 08:38:11;;;;;;;4.95;3.55;;;;;;;1.91;100.00;95841.41;5058655;28;24435;-70
2022/12/06 08:40:37;;;;;;;5.00;3.80;;;;;;;1.97;100.00;95839.59;5064147;28;25093;-70
2022/12/06 08:43:04;;;;;;;5.55;4.95;;;;;;;1.96;100.00;95843.00;5066474;28;24441;-70
2022/12/06 08:45:30;;;;;;;5.75;5.05;;;;;;;1.92;100.00;95848.19;5057332;28;24459;-70
2022/12/06 08:47:57;;;;;;;7.57;6.35;;;;;;;1.84;100.00;95844.19;5067218;28;24442;-70
2022/12/06 08:50:25;;;;;;;6.70;5.00;;;;;;;1.91;100.00;95849.06;5055127;28;24431;-71
2022/12/06 08:52:51;;;;;;;7.63;5.63;;;;;;;1.98;100.00;95851.47;5066932;28;24445;-70
2022/12/06 08:55:18;;;;;;;6.50;4.90;;;;;;;2.03;100.00;95847.88;5064315;28;24850;-71
2022/12/06 08:57:45;;;;;;;5.60;5.10;;;;;;;2.12;100.00;95851.91;5065915;28;24983;-71
2022/12/06 09:00:13;;;;;;;6.57;5.68;;;;;;;2.13;100.00;95841.66;5059756;28;24438;-70
2022/12/06 09:02:39;;;;;;;6.43;5.47;;;;;;;2.17;100.00;95850.88;5062873;28;25014;-70
2022/12/06 09:05:06;;;;;;;7.78;5.60;;;;;;;2.26;100.00;95854.06;5060958;28;24443;-69
2022/12/06 09:07:34;;;;;;;5.93;5.07;;;;;;;2.22;100.00;95865.25;5067072;28;24427;-70
2022/12/06 09:10:01;;;;;;;7.45;5.10;;;;;;;2.25;100.00;95870.28;5059739;28;24430;-70
2022/12/06 09:12:27;;;;;;;7.78;5.38;;;;;;;2.23;100.00;95869.50;5066979;28;24469;-72
2022/12/06 09:14:54;;;;;;;5.50;4.60;;;;;;;2.22;100.00;95870.38;5064441;28;24999;-72
2022/12/06 09:17:20;;;;;;;5.57;4.82;;;;;;;2.29;100.00;95874.41;5062269;28;24439;-70
2022/12/06 09:19:47;;;;;;;6.78;4.70;;;;;;;2.31;100.00;95870.94;5063088;28;24969;-72
2022/12/06 09:22:14;;;;;;;5.05;4.55;;;;;;;2.34;100.00;95865.75;5067796;28;24468;-71
2022/12/06 09:24:41;;;;;;;7.90;5.20;;;;;;;2.42;100.00;95862.97;5064332;28;24964;-72
2022/12/06 09:27:08;;;;;;;8.52;6.32;;;;;;;2.43;100.00;95869.75;5062122;28;24437;-71
2022/12/06 09:29:36;;;;;;;7.60;6.00;;;;;;;2.43;100.00;95868.03;5064481;28;24427;-70
2022/12/06 09:32:02;;;;;;;7.03;5.30;;;;;;;2.50;100.00;95865.31;5067312;28;24784;-71
2022/12/06 09:34:29;;;;;;;7.50;5.65;;;;;;;2.49;100.00;95871.31;5064723;28;24430;-70
2022/12/06 09:37:01;;;;;;;6.25;5.45;;;;;;;2.56;100.00;95876.19;5067507;28;25018;-71
2022/12/06 09:39:32;;;;;;;6.63;5.60;;;;;;;2.47;100.00;95863.66;5064027;28;24427;-71
2022/12/06 09:42:33;;;;;;;5.90;4.97;;;;;;;2.43;100.00;95873.13;5064855;28;24450;-72
2022/12/06 09:45:18;;;;;;;6.10;5.47;;;;;;;2.29;100.00;95870.13;5055674;28;24896;-72
2022/12/06 09:47:59;;;;;;;7.45;4.95;;;;;;;2.17;100.00;95871.34;5063513;28;24438;-72
2022/12/06 09:50:35;;;;;;;6.63;4.63;;;;;;;2.14;100.00;95878.25;5068909;28;24437;-72
2022/12/06 09:53:17;;;;;;;5.43;4.93;;;;;;;2.03;100.00;95873.44;5071363;28;24867;-72
2022/12/06 09:55:55;;;;;;;5.35;4.82;;;;;;;1.91;100.00;95881.44;5068924;28;24437;-72
2022/12/06 09:58:35;;;;;;;5.55;4.88;;;;;;;1.94;100.00;95871.16;5065213;28;24430;-72
2022/12/06 10:01:12;;;;;;;6.63;5.33;;;;;;;1.98;100.00;95872.72;5068779;28;24442;-72
2022/12/06 10:03:51;;;;;;;7.43;5.82;;;;;;;2.04;100.00;95869.16;5072367;28;24994;-70
2022/12/06 10:06:21;;;;;;;8.48;5.65;;;;;;;2.09;100.00;95873.28;5057688;28;24569;-70
2022/12/06 10:09:03;;;;;;;8.93;6.63;;;;;;;2.00;100.00;95872.69;5067817;28;24521;-70
2022/12/06 10:11:42;;;;;;;7.78;6.72;;;;;;;1.93;100.00;95867.75;5067362;28;24435;-72
2022/12/06 10:14:25;;;;;;;9.07;6.78;;;;;;;1.92;100.00;95870.34;5064592;28;24442;-72
2022/12/06 10:17:00;;;;;;;9.15;7.65;;;;;;;1.97;100.00;95871.06;5064919;28;25321;-72
2022/12/06 10:19:39;;;;;;;11.77;6.97;;;;;;;1.96;100.00;95871.09;5066397;28;24441;-70
2022/12/06 10:22:16;;;;;;;8.02;7.22;;;;;;;1.90;100.00;95872.13;5063763;28;24446;-70
2022/12/06 10:24:59;;;;;;;8.30;7.40;;;;;;;1.87;100.00;95865.34;5061170;28;24439;-70
2022/12/06 10:27:34;;;;;;;11.27;7.88;;;;;;;1.87;100.00;95867.09;5061899;28;24431;-71
2022/12/06 10:30:07;;;;;;;8.50;7.60;;;;;;;1.86;100.00;95855.19;5066179;28;24883;-68
2022/12/06 10:33:04;;;;;;;9.15;8.00;;;;;;;1.84;100.00;95857.78;5063396;28;24449;-69
2022/12/06 10:35:41;;;;;;;11.68;8.70;;;;;;;1.80;100.00;95856.19;5043591;28;24444;-71
2022/12/06 10:38:19;;;;;;;9.20;8.40;;;;;;;1.80;100.00;95850.25;5062704;28;24446;-71
2022/12/06 10:40:52;;;;;;;9.55;8.55;;;;;;;1.90;100.00;95846.56;5068353;28;24442;-69
2022/12/06 10:43:28;;;;;;;12.00;9.20;;;;;;;1.83;100.00;95840.78;5067431;28;24450;-69
2022/12/06 10:48:59;;;;;;;11.43;10.20;;;;;;;1.85;100.00;95845.84;5058158;28;24593;-68
2022/12/06 10:51:34;;;;;;;15.30;10.23;;;;;;;1.86;100.00;95840.72;5060725;28;24449;-69
2022/12/06 10:54:19;;;;;;;13.95;10.80;;;;;;;1.86;100.00;95839.88;5063740;28;24450;-69
2022/12/06 10:56:48;;;;;;;11.87;10.43;;;;;;;1.85;100.00;95838.19;5070323;28;25065;-70
2022/12/06 10:59:26;;;;;;;12.07;9.80;;;;;;;1.90;100.00;95828.69;5058850;28;25015;-69
2022/12/06 11:01:57;;;;;;;10.98;9.88;;;;;;;2.03;100.00;95830.00;5057923;28;24435;-69
2022/12/06 11:04:27;;;;;;;10.88;9.48;;;;;;;2.03;100.00;95836.84;5062383;28;24449;-68
2022/12/06 11:06:58;;;;;;;10.93;9.73;;;;;;;2.02;100.00;95833.44;5067792;28;24478;-68
2022/12/06 11:09:32;;;;;;;11.18;9.90;;;;;;;1.99;100.00;95838.63;5060095;28;24999;-69
2022/12/06 11:11:59;;;;;;;11.10;9.95;;;;;;;2.02;100.00;95836.00;5061605;28;24439;-68
2022/12/06 11:14:32;;;;;;;11.05;9.82;;;;;;;2.11;100.00;95834.91;5066956;28;24446;-70
2022/12/06 11:17:05;;;;;;;12.13;9.98;;;;;;;2.09;100.00;95834.94;5065604;28;24492;-69
2022/12/06 11:19:37;;;;;;;11.65;10.48;;;;;;;2.03;100.00;95829.16;5061360;28;24992;-70
2022/12/06 11:22:12;;;;;;;11.82;10.63;;;;;;;1.96;100.00;95832.78;5061033;28;24443;-70
2022/12/06 11:24:47;;;;;;;13.48;10.52;;;;;;;1.98;100.00;95834.41;5065845;28;24442;-70
2022/12/06 11:27:21;;;;;;;12.98;11.68;;;;;;;1.99;100.00;95830.97;5063569;28;24524;-68
2022/12/06 11:29:49;;;;;;;13.07;11.50;;;;;;;1.97;100.00;95832.75;5066547;28;24446;-68
2022/12/06 11:32:18;;;;;;;12.40;10.77;;;;;;;1.96;100.00;95830.22;5064917;28;25000;-68
2022/12/06 11:34:48;;;;;;;11.38;10.18;;;;;;;1.95;100.00;95831.94;5063977;28;24454;-69
2022/12/06 11:37:17;;;;;;;12.15;10.30;;;;;;;1.98;100.00;95836.13;5068802;28;24466;-73
2022/12/06 11:39:44;;;;;;;12.40;11.15;;;;;;;1.96;100.00;95832.78;5066684;28;24438;-73
2022/12/06 11:42:14;;;;;;;11.55;9.98;;;;;;;2.03;100.00;95832.56;5063999;28;24448;-74
2022/12/06 11:44:44;;;;;;;11.57;10.38;;;;;;;2.04;100.00;95836.81;5062872;28;24443;-68
2022/12/06 11:47:15;;;;;;;15.23;11.82;;;;;;;2.02;100.00;95840.28;5060936;28;24809;-70
2022/12/06 11:49:45;;;;;;;12.23;10.73;;;;;;;2.25;100.00;95831.94;5063800;28;24446;-70
2022/12/06 11:52:16;;;;;;;11.77;10.13;;;;;;;2.15;100.00;95844.13;5066918;28;24453;-71
2022/12/06 11:54:48;;;;;;;12.43;10.20;;;;;;;2.07;100.00;95829.03;5065731;28;24447;-70
2022/12/06 11:57:20;;;;;;;11.88;10.25;;;;;;;2.12;100.00;95829.75;5058422;28;24442;-70
2022/12/06 12:00:08;;;;;;;12.30;10.38;;;;;;;2.03;100.00;95831.72;5065475;28;24500;-70
2022/12/06 12:02:34;;;;;;;10.57;9.48;;;;;;;2.02;100.00;95832.63;5067559;28;24465;-71
2022/12/06 12:05:09;;;;;;;11.52;9.57;;;;;;;2.07;100.00;95829.03;5063417;28;24443;-71
2022/12/06 12:07:40;;;;;;;10.20;9.20;;;;;;;2.04;100.00;95828.28;5059296;28;24451;-72
2022/12/06 12:10:26;;;;;;;12.52;8.80;;;;;;;2.02;100.00;95820.69;5066730;28;24426;-72